Time;durP1;ratioP1;P1;durP2;ratioP2;P2;SDS_P1;SDS_P2;PMS_P1;PMS_P2;Temp;Humidity;BMP_temperature;BMP_pressure;BME280_temperature;BME280_humidity;BME280_pressure;Samples;Min_cycle;Max_cycle;Signal;HPM_P1;HPM_P2
2022/06/21 02:52:37;;;;;;;5.53;1.63;;;17.30;64.80;;;;;;5252872;24;20467;-75
2022/06/21 02:55:42;;;;;;;5.72;1.17;;;17.30;65.00;;;;;;4772171;30;20705;-71
2022/06/21 02:58:28;;;;;;;5.50;1.05;;;17.20;65.40;;;;;;4790298;30;20059;-77
2022/06/21 03:00:54;;;;;;;4.32;0.95;;;17.30;65.50;;;;;;4789570;30;20134;-72
2022/06/21 03:03:25;;;;;;;3.88;1.20;;;17.40;65.60;;;;;;4790284;30;20124;-72
2022/06/21 03:05:56;;;;;;;4.18;1.13;;;17.50;66.30;;;;;;4786378;30;20062;-72
2022/06/21 03:08:22;;;;;;;5.55;0.95;;;17.50;65.70;;;;;;4760426;30;20051;-78
2022/06/21 03:10:49;;;;;;;2.03;0.93;;;17.60;65.80;;;;;;4774224;30;20108;-77
2022/06/21 03:13:32;;;;;;;3.08;1.10;;;17.50;65.70;;;;;;4774458;30;20051;-76
2022/06/21 03:16:03;;;;;;;3.33;1.05;;;17.60;65.50;;;;;;4790027;30;20067;-76
2022/06/21 03:18:42;;;;;;;4.70;0.95;;;17.60;65.60;;;;;;4776962;30;20088;-75
2022/06/21 03:21:12;;;;;;;5.07;1.30;;;17.60;65.60;;;;;;4772175;30;20113;-74
2022/06/21 03:23:40;;;;;;;2.92;0.93;;;17.70;65.70;;;;;;4772300;30;20055;-74
2022/06/21 03:26:06;;;;;;;3.28;1.20;;;17.70;65.70;;;;;;4771930;30;20058;-73
2022/06/21 03:28:41;;;;;;;4.10;0.68;;;17.70;65.70;;;;;;4756982;30;20055;-74
2022/06/21 03:31:12;;;;;;;2.42;0.82;;;17.70;65.60;;;;;;4771995;30;20112;-73
2022/06/21 03:33:44;;;;;;;3.17;1.05;;;17.80;66.30;;;;;;4772293;30;20051;-76
2022/06/21 03:36:16;;;;;;;2.72;0.90;;;17.80;65.70;;;;;;4772223;30;20066;-75
2022/06/21 03:38:48;;;;;;;5.30;0.85;;;17.80;65.60;;;;;;4772433;30;20158;-75
2022/06/21 03:44:09;;;;;;;2.88;0.95;;;17.80;65.70;;;;;;4772311;30;20063;-74
2022/06/21 03:46:44;;;;;;;3.88;0.90;;;17.80;65.70;;;;;;4771991;30;20454;-76
2022/06/21 03:49:56;;;;;;;2.70;1.20;;;17.80;65.60;;;;;;4771832;30;20052;-76
2022/06/21 03:52:41;;;;;;;3.15;0.90;;;17.80;65.40;;;;;;4739483;30;20160;-78
2022/06/21 03:55:12;;;;;;;4.20;1.45;;;17.80;65.70;;;;;;4785833;29;20059;-73
2022/06/21 03:57:42;;;;;;;1.80;0.90;;;17.90;65.80;;;;;;4792644;30;20131;-73
2022/06/21 04:00:13;;;;;;;2.67;0.65;;;17.90;65.80;;;;;;4777742;30;20147;-73
2022/06/21 04:02:49;;;;;;;3.00;1.00;;;17.90;65.60;;;;;;4793341;30;20063;-73
2022/06/21 04:05:36;;;;;;;5.28;1.65;;;17.90;65.70;;;;;;4792841;30;20062;-71
2022/06/21 04:08:11;;;;;;;3.47;1.35;;;17.90;65.80;;;;;;4792946;30;20055;-71
2022/06/21 04:10:40;;;;;;;2.75;0.90;;;17.90;65.70;;;;;;4792800;30;20451;-75
2022/06/21 04:13:34;;;;;;;4.45;1.60;;;18.00;65.80;;;;;;4793000;30;20051;-73
2022/06/21 04:16:14;;;;;;;3.60;1.40;;;18.00;65.40;;;;;;4765000;30;20063;-71
2022/06/21 04:19:07;;;;;;;3.13;1.10;;;18.00;65.00;;;;;;4792736;30;20055;-74
2022/06/21 04:21:44;;;;;;;4.68;1.40;;;18.00;64.90;;;;;;4793084;30;20059;-75
2022/06/21 04:24:27;;;;;;;2.33;1.40;;;18.00;65.00;;;;;;4792369;30;20524;-72
2022/06/21 04:27:24;;;;;;;2.83;1.35;;;17.90;64.90;;;;;;4781379;30;20051;-74
2022/06/21 04:29:58;;;;;;;5.10;1.70;;;17.90;64.90;;;;;;4768214;30;20569;-79
2022/06/21 04:33:02;;;;;;;;;;;17.90;64.90;;;;;;4760588;30;20141;-76
2022/06/21 04:35:38;;;;;;;3.17;1.38;;;17.80;64.80;;;;;;4719860;30;20408;-75
2022/06/21 04:38:10;;;;;;;4.28;1.50;;;17.80;64.80;;;;;;4719866;30;20126;-73
2022/06/21 04:40:58;;;;;;;4.35;1.40;;;17.80;64.90;;;;;;4736168;30;20055;-74
2022/06/21 04:43:38;;;;;;;3.00;1.95;;;17.80;65.00;;;;;;4774640;30;20136;-74
2022/06/21 04:46:10;;;;;;;5.18;1.10;;;17.80;65.00;;;;;;4775093;30;20059;-74
2022/06/21 04:48:59;;;;;;;3.70;1.65;;;17.80;65.10;;;;;;4774800;30;20052;-74
2022/06/21 04:51:33;;;;;;;3.20;1.00;;;17.80;65.10;;;;;;4781621;30;20051;-74
2022/06/21 04:54:13;;;;;;;6.07;1.52;;;17.80;65.10;;;;;;4792365;30;20183;-74
2022/06/21 04:56:51;;;;;;;3.67;1.35;;;17.80;65.20;;;;;;4792352;30;20105;-74
2022/06/21 04:59:25;;;;;;;2.85;1.30;;;17.80;65.30;;;;;;4792752;30;20143;-73
2022/06/21 05:01:52;;;;;;;3.35;1.20;;;17.80;65.90;;;;;;4791909;30;20062;-73
2022/06/21 05:04:24;;;;;;;2.78;1.27;;;17.80;65.30;;;;;;4790932;30;20078;-73
2022/06/21 05:06:51;;;;;;;5.95;1.45;;;17.80;65.30;;;;;;4791621;29;20127;-73
2022/06/21 05:09:20;;;;;;;4.38;1.63;;;17.80;65.30;;;;;;4792067;30;20141;-73
2022/06/21 05:11:54;;;;;;;3.97;1.42;;;17.80;65.30;;;;;;4776296;30;20055;-73
2022/06/21 05:14:23;;;;;;;;;;;17.80;65.40;;;;;;4776780;30;20048;-74
2022/06/21 05:16:50;;;;;;;5.05;1.52;;;17.80;65.40;;;;;;4791508;30;20023;-78
2022/06/21 05:19:33;;;;;;;7.88;1.80;;;17.80;65.60;;;;;;4791974;30;20048;-74
2022/06/21 05:22:30;;;;;;;5.03;1.65;;;17.80;65.60;;;;;;4756403;30;20073;-76
2022/06/21 05:24:57;;;;;;;4.70;1.20;;;17.80;65.70;;;;;;4790727;30;20055;-75
2022/06/21 05:27:33;;;;;;;5.80;1.88;;;17.90;65.70;;;;;;4791498;30;20047;-75
2022/06/21 05:30:26;;;;;;;6.93;2.33;;;17.90;65.70;;;;;;4791934;30;20059;-79
2022/06/21 05:32:56;;;;;;;6.80;1.70;;;17.90;65.90;;;;;;4791866;30;20091;-77
2022/06/21 05:35:26;;;;;;;4.80;1.88;;;17.90;65.90;;;;;;4775134;30;20182;-76
2022/06/21 05:37:59;;;;;;;4.65;1.40;;;17.90;66.00;;;;;;4791300;30;20078;-76
2022/06/21 05:40:46;;;;;;;7.78;2.40;;;18.00;66.00;;;;;;4775363;30;20143;-74
2022/06/21 05:43:16;;;;;;;5.10;1.73;;;17.90;66.20;;;;;;4790733;30;20043;-75
2022/06/21 05:46:12;;;;;;;6.40;1.90;;;17.90;66.30;;;;;;4775594;30;20052;-74
2022/06/21 05:48:41;;;;;;;9.15;1.63;;;18.00;66.40;;;;;;4774470;30;20158;-76
2022/06/21 05:51:16;;;;;;;5.97;1.90;;;18.00;66.40;;;;;;4791791;30;20047;-72
2022/06/21 05:53:48;;;;;;;5.63;2.10;;;18.00;66.40;;;;;;4791394;30;20060;-76
2022/06/21 05:56:21;;;;;;;8.50;1.80;;;18.00;66.40;;;;;;4791262;30;20066;-79
2022/06/21 05:58:52;;;;;;;9.52;2.05;;;18.10;66.50;;;;;;4791026;30;20062;-80
2022/06/21 06:01:23;;;;;;;58.45;5.28;;;18.00;66.40;;;;;;4775336;30;20131;-76
2022/06/21 06:04:22;;;;;;;36.75;4.75;;;18.00;66.40;;;;;;4791225;30;20482;-77
2022/06/21 06:06:48;;;;;;;27.67;3.42;;;18.00;66.30;;;;;;4781180;30;20058;-77
2022/06/21 06:09:27;;;;;;;22.55;3.67;;;18.00;66.30;;;;;;4790270;30;20047;-82
2022/06/21 06:11:59;;;;;;;12.95;2.55;;;18.10;66.10;;;;;;4775579;30;20135;-76
2022/06/21 06:14:38;;;;;;;13.93;2.60;;;18.00;65.90;;;;;;4790847;30;20589;-78
2022/06/21 06:17:14;;;;;;;15.48;2.38;;;18.10;65.90;;;;;;4775549;30;20097;-78
2022/06/21 06:19:48;;;;;;;8.80;2.67;;;18.00;65.80;;;;;;4789571;29;20050;-78
2022/06/21 06:22:46;;;;;;;9.27;2.05;;;18.10;65.70;;;;;;4790719;30;20070;-77
2022/06/21 06:25:19;;;;;;;8.15;2.78;;;18.10;65.60;;;;;;4765267;30;20070;-77
2022/06/21 06:28:14;;;;;;;9.10;2.08;;;18.10;65.30;;;;;;4790063;30;20118;-79
2022/06/21 06:30:49;;;;;;;14.60;2.33;;;18.20;65.20;;;;;;4772719;30;20062;-80
2022/06/21 06:33:35;;;;;;;5.78;1.90;;;18.20;65.00;;;;;;4771202;30;20130;-82
2022/06/21 06:36:07;;;;;;;4.53;1.90;;;18.20;64.80;;;;;;4759600;30;20054;-81
2022/06/21 06:38:33;;;;;;;4.85;1.63;;;18.20;64.10;;;;;;4789707;30;20043;-75
2022/06/21 06:41:47;;;;;;;9.30;1.67;;;18.20;64.20;;;;;;4790027;30;20123;-73
2022/06/21 06:44:13;;;;;;;3.83;1.38;;;18.20;64.30;;;;;;4731230;30;20078;-74
2022/06/21 06:46:50;;;;;;;5.13;1.70;;;18.20;64.30;;;;;;4772579;30;20056;-74
2022/06/21 06:49:52;;;;;;;7.35;1.73;;;18.20;64.20;;;;;;4782196;30;20135;-74
2022/06/21 06:52:24;;;;;;;4.78;1.63;;;18.20;64.20;;;;;;4777888;30;20063;-74
2022/06/21 06:54:55;;;;;;;5.22;2.00;;;18.20;64.10;;;;;;4790020;30;20340;-74
2022/06/21 06:57:21;;;;;;;7.22;2.05;;;18.20;64.00;;;;;;4790594;30;20055;-74
2022/06/21 06:59:47;;;;;;;6.28;2.38;;;18.30;64.10;;;;;;4789437;30;20047;-74
2022/06/21 07:02:35;;;;;;;5.65;1.88;;;18.30;63.90;;;;;;4790248;30;20077;-74
2022/06/21 07:05:33;;;;;;;4.18;1.50;;;18.30;63.80;;;;;;4790867;30;20387;-74
2022/06/21 07:08:08;;;;;;;5.10;1.50;;;18.30;63.90;;;;;;4789693;30;20510;-74
2022/06/21 07:10:35;;;;;;;4.07;1.77;;;18.30;63.90;;;;;;4780307;30;20491;-75
2022/06/21 07:13:01;;;;;;;11.88;2.08;;;18.30;63.80;;;;;;4773886;30;20084;-77
2022/06/21 07:15:37;;;;;;;4.93;2.05;;;18.40;63.80;;;;;;4789808;30;20036;-77
2022/06/21 07:18:04;;;;;;;6.00;1.70;;;18.40;63.70;;;;;;4789685;30;20051;-80
2022/06/21 07:20:39;;;;;;;4.80;1.55;;;18.40;63.60;;;;;;4774021;30;20051;-72
2022/06/21 07:23:15;;;;;;;8.30;2.03;;;18.40;63.60;;;;;;4786876;30;20086;-78
2022/06/21 07:26:10;;;;;;;5.15;1.92;;;18.50;63.60;;;;;;4790663;30;20131;-78
2022/06/21 07:28:53;;;;;;;6.53;1.88;;;18.50;63.60;;;;;;4789417;30;20112;-80
2022/06/21 07:31:25;;;;;;;5.38;1.77;;;18.50;63.80;;;;;;4773677;30;20051;-73
2022/06/21 07:34:06;;;;;;;3.67;1.55;;;18.50;63.00;;;;;;4789806;30;20047;-73
2022/06/21 07:36:42;;;;;;;4.88;1.60;;;18.60;63.90;;;;;;4773982;30;20039;-80
2022/06/21 07:39:27;;;;;;;5.05;1.38;;;18.50;63.00;;;;;;4758903;30;20047;-82
2022/06/21 07:42:03;;;;;;;3.40;1.80;;;18.50;63.00;;;;;;4773484;30;20051;-78
2022/06/21 07:44:58;;;;;;;3.90;1.70;;;18.50;62.70;;;;;;4788859;30;20062;-80
2022/06/21 07:47:34;;;;;;;5.07;1.58;;;18.50;63.30;;;;;;4765890;30;20051;-77
2022/06/21 07:50:13;;;;;;;5.25;2.13;;;18.50;63.10;;;;;;4773789;30;20062;-79
2022/06/21 07:52:59;;;;;;;5.60;1.73;;;18.50;63.00;;;;;;4771048;30;20142;-80
2022/06/21 07:55:38;;;;;;;3.88;1.77;;;18.50;63.20;;;;;;4763254;30;20058;-82
2022/06/21 07:58:24;;;;;;;6.25;1.17;;;18.50;63.30;;;;;;4759197;30;20047;-79
2022/06/21 08:07:22;;;;;;;4.07;1.50;;;18.50;63.80;;;;;;4789481;30;20082;-85
2022/06/21 08:10:20;;;;;;;4.40;1.38;;;18.50;63.70;;;;;;4773283;30;20075;-83
2022/06/21 08:12:50;;;;;;;6.47;1.90;;;18.50;63.90;;;;;;4789356;30;20051;-80
2022/06/21 08:15:17;;;;;;;5.35;1.75;;;18.50;63.80;;;;;;4758047;30;20095;-84
2022/06/21 08:17:59;;;;;;;7.65;1.30;;;18.60;63.70;;;;;;4758504;30;20075;-77
2022/06/21 08:20:41;;;;;;;9.40;1.73;;;18.60;65.20;;;;;;4771455;30;20036;-76
2022/06/21 08:23:16;;;;;;;4.28;1.65;;;18.60;65.00;;;;;;4777567;30;20051;-76
2022/06/21 08:25:54;;;;;;;5.07;1.50;;;18.70;65.00;;;;;;4773284;30;20390;-77
2022/06/21 08:28:33;;;;;;;9.30;1.92;;;18.70;64.70;;;;;;4789732;30;20090;-76
2022/06/21 08:31:09;;;;;;;6.95;1.92;;;18.80;64.30;;;;;;4789348;30;20444;-80
2022/06/21 08:34:23;;;;;;;5.45;1.45;;;18.80;63.80;;;;;;4758857;30;20052;-82
2022/06/21 08:36:56;;;;;;;2.75;1.30;;;18.80;63.70;;;;;;4758441;30;20059;-81
2022/06/21 08:39:29;;;;;;;4.72;1.58;;;18.90;62.40;;;;;;4773132;30;20378;-80
2022/06/21 08:42:30;;;;;;;5.80;1.42;;;18.90;61.10;;;;;;4772977;30;20055;-77
2022/06/21 08:48:19;;;;;;;3.28;1.35;;;18.70;60.80;;;;;;4792623;30;20063;-80
2022/06/21 08:50:54;;;;;;;6.43;1.40;;;18.60;61.50;;;;;;4776341;30;20182;-80
2022/06/21 08:53:33;;;;;;;3.83;1.42;;;18.60;61.50;;;;;;4792012;30;20055;-79
2022/06/21 08:56:31;;;;;;;5.32;1.20;;;18.60;61.30;;;;;;4761749;30;20179;-80
2022/06/21 08:59:06;;;;;;;3.53;1.17;;;18.60;61.70;;;;;;4761689;30;20059;-73
2022/06/21 09:01:55;;;;;;;5.38;1.20;;;18.60;62.00;;;;;;4791497;30;20395;-72
2022/06/21 09:04:43;;;;;;;5.75;1.42;;;18.60;61.90;;;;;;4782050;30;20097;-74
2022/06/21 09:07:24;;;;;;;5.30;1.58;;;18.60;62.10;;;;;;4792063;30;20454;-74
2022/06/21 09:10:09;;;;;;;5.40;1.40;;;18.60;62.00;;;;;;4791510;30;20120;-77
2022/06/21 09:12:44;;;;;;;6.78;1.42;;;18.60;62.30;;;;;;4778272;30;20078;-76
2022/06/21 09:15:32;;;;;;;6.60;1.38;;;18.70;62.60;;;;;;4791859;30;20386;-76
2022/06/21 09:18:44;;;;;;;6.53;1.30;;;18.80;62.60;;;;;;4791787;30;20040;-77
2022/06/21 09:21:21;;;;;;;3.28;1.08;;;18.90;62.80;;;;;;4756614;30;20352;-72
2022/06/21 09:24:05;;;;;;;6.72;1.27;;;18.90;62.80;;;;;;4791792;30;20057;-72
2022/06/21 09:26:36;;;;;;;4.13;1.35;;;18.90;63.00;;;;;;4791846;30;20116;-73
2022/06/21 09:29:26;;;;;;;10.25;1.60;;;18.90;63.00;;;;;;4791433;30;20490;-72
2022/06/21 09:32:14;;;;;;;12.52;2.15;;;19.00;63.00;;;;;;4788106;30;20438;-75
2022/06/21 09:35:05;;;;;;;9.25;1.65;;;19.00;63.00;;;;;;4773748;30;20058;-77
2022/06/21 09:38:12;;;;;;;7.68;1.20;;;19.00;62.90;;;;;;4774525;30;20061;-75
2022/06/21 09:40:45;;;;;;;8.38;1.35;;;19.10;62.60;;;;;;4791342;29;20047;-77
2022/06/21 09:43:48;;;;;;;16.25;2.72;;;19.10;62.70;;;;;;4790951;30;20062;-74
2022/06/21 09:46:26;;;;;;;15.10;2.42;;;19.20;62.60;;;;;;4782670;30;20142;-76
2022/06/21 09:49:05;;;;;;;6.30;1.50;;;19.20;62.30;;;;;;4791197;30;20048;-74
2022/06/21 09:51:55;;;;;;;6.07;1.20;;;19.20;62.60;;;;;;4773519;30;20476;-73
2022/06/21 09:54:36;;;;;;;4.97;1.50;;;19.20;62.60;;;;;;4783875;30;20069;-75
2022/06/21 09:57:36;;;;;;;5.15;1.25;;;19.20;62.80;;;;;;4790971;30;20131;-73
2022/06/21 10:00:23;;;;;;;9.02;1.65;;;19.20;63.00;;;;;;4791508;30;20059;-74
2022/06/21 10:03:10;;;;;;;7.47;1.50;;;19.20;63.00;;;;;;4790104;30;20367;-73
2022/06/21 10:05:42;;;;;;;6.03;1.60;;;19.30;63.30;;;;;;4790854;30;20127;-74
2022/06/21 10:08:45;;;;;;;6.93;1.63;;;19.30;63.30;;;;;;4791161;30;20058;-72
2022/06/21 10:11:37;;;;;;;7.78;1.25;;;19.30;63.30;;;;;;4790824;30;20200;-73
2022/06/21 10:14:10;;;;;;;6.60;1.80;;;19.30;63.50;;;;;;4754100;30;20102;-72
2022/06/21 10:16:44;;;;;;;5.05;1.23;;;19.40;63.90;;;;;;4790822;30;20078;-75
2022/06/21 10:19:10;;;;;;;5.20;1.38;;;19.40;63.50;;;;;;4790480;30;20058;-72
2022/06/21 10:21:59;;;;;;;7.05;1.45;;;19.40;63.70;;;;;;4775286;30;20055;-72
2022/06/21 10:24:39;;;;;;;8.75;1.55;;;19.40;64.00;;;;;;4775046;30;20126;-73
2022/06/21 10:27:23;;;;;;;7.72;1.40;;;19.50;64.40;;;;;;4790773;29;20051;-73
2022/06/21 10:29:55;;;;;;;4.63;1.23;;;19.50;64.10;;;;;;4774633;30;20051;-73
2022/06/21 10:32:53;;;;;;;5.35;1.00;;;19.50;62.40;;;;;;4791028;30;20051;-73
2022/06/21 10:35:30;;;;;;;5.68;1.00;;;19.40;62.80;;;;;;4762170;30;20051;-72
2022/06/21 10:38:20;;;;;;;4.20;1.17;;;19.40;63.20;;;;;;4790954;30;20051;-73
2022/06/21 10:41:18;;;;;;;4.85;1.38;;;19.40;63.40;;;;;;4790241;30;20059;-79
2022/06/21 10:44:30;;;;;;;4.70;1.15;;;19.50;62.80;;;;;;4774942;30;20474;-79
2022/06/21 10:47:03;;;;;;;4.68;1.50;;;19.40;62.20;;;;;;4790642;30;20059;-77
2022/06/21 10:49:41;;;;;;;;;;;19.40;61.50;;;;;;4790367;30;20043;-73
2022/06/21 10:52:37;;;;;;;6.47;1.48;;;19.40;61.90;;;;;;4790541;29;19933;-77
2022/06/21 10:55:18;;;;;;;4.00;1.08;;;19.30;62.00;;;;;;4754895;30;20519;-76
2022/06/21 10:57:51;;;;;;;4.82;1.30;;;19.30;62.00;;;;;;4751204;30;20131;-75
2022/06/21 11:03:50;;;;;;;2.15;1.20;;;19.30;62.00;;;;;;4753675;30;20064;-76
2022/06/21 11:06:50;;;;;;;4.07;1.20;;;19.30;62.30;;;;;;4752907;30;20109;-77
2022/06/21 11:09:39;;;;;;;5.75;1.33;;;19.30;62.40;;;;;;4750554;30;20330;-76
2022/06/21 11:15:11;;;;;;;8.52;1.60;;;19.40;62.80;;;;;;4754285;30;20106;-76
2022/06/21 11:17:52;;;;;;;4.68;1.40;;;19.40;62.80;;;;;;4753461;30;20048;-76
2022/06/21 11:20:29;;;;;;;4.10;1.45;;;19.40;62.50;;;;;;4752848;30;20500;-77
2022/06/21 11:23:12;;;;;;;5.60;2.28;;;19.40;62.20;;;;;;4740508;30;20052;-76
2022/06/21 11:25:53;;;;;;;5.00;1.05;;;19.40;63.10;;;;;;4753120;30;20113;-77
2022/06/21 11:28:51;;;;;;;6.10;1.30;;;19.40;63.50;;;;;;4754302;30;20052;-77
2022/06/21 11:31:29;;;;;;;3.35;0.98;;;19.50;63.80;;;;;;4734880;30;20064;-76
2022/06/21 11:34:23;;;;;;;6.35;1.65;;;19.50;63.60;;;;;;4754913;30;20063;-77
2022/06/21 11:37:17;;;;;;;4.28;1.42;;;19.50;64.60;;;;;;4754250;30;20468;-76
2022/06/21 11:39:56;;;;;;;4.05;2.47;;;19.50;65.40;;;;;;4746962;30;20052;-76
2022/06/21 11:42:25;;;;;;;2.67;1.48;;;19.60;65.00;;;;;;4753393;30;20350;-75
2022/06/21 11:45:15;;;;;;;5.53;2.10;;;19.50;64.30;;;;;;4753154;30;20052;-77
2022/06/21 11:48:08;;;;;;;9.70;2.15;;;19.60;65.50;;;;;;4754254;30;20064;-78
2022/06/21 11:50:54;;;;;;;3.53;1.70;;;19.60;66.70;;;;;;4753830;30;20056;-78
2022/06/21 11:53:35;;;;;;;2.90;1.63;;;19.60;66.40;;;;;;4752086;30;20125;-76
2022/06/21 11:56:09;;;;;;;2.88;1.40;;;19.70;65.70;;;;;;4771005;30;20067;-78
2022/06/21 11:58:42;;;;;;;3.03;1.35;;;19.70;66.20;;;;;;4771071;30;20164;-77
2022/06/21 12:01:34;;;;;;;2.22;1.23;;;19.70;66.30;;;;;;4770437;30;20047;-77
2022/06/21 12:04:19;;;;;;;4.85;1.25;;;19.70;66.30;;;;;;4753960;30;20139;-76
2022/06/21 12:06:57;;;;;;;5.95;1.58;;;19.70;66.00;;;;;;4754245;30;20063;-77
2022/06/21 12:09:37;;;;;;;2.22;1.10;;;19.70;65.60;;;;;;4754243;30;20106;-75
2022/06/21 12:12:28;;;;;;;4.03;1.33;;;19.70;65.30;;;;;;4757522;30;20060;-76
2022/06/21 12:15:27;;;;;;;3.20;1.30;;;19.70;65.30;;;;;;4772082;30;20043;-76
2022/06/21 12:17:55;;;;;;;3.42;1.15;;;19.70;65.10;;;;;;4772548;30;20482;-77
2022/06/21 12:20:34;;;;;;;3.45;1.27;;;19.80;64.80;;;;;;4775052;30;20055;-77
2022/06/21 12:23:12;;;;;;;2.60;1.10;;;19.80;64.60;;;;;;4774807;30;20051;-77
2022/06/21 12:25:38;;;;;;;2.40;1.00;;;19.70;64.70;;;;;;4774484;30;20059;-76
2022/06/21 12:28:31;;;;;;;2.67;0.90;;;19.70;64.50;;;;;;4774864;30;20092;-75
2022/06/21 12:31:03;;;;;;;4.22;1.02;;;19.80;64.60;;;;;;4773013;30;20142;-77
2022/06/21 12:33:39;;;;;;;2.75;0.73;;;19.80;64.40;;;;;;4774717;30;20047;-77
2022/06/21 12:36:13;;;;;;;4.35;1.48;;;19.80;64.10;;;;;;4774542;30;20055;-76
2022/06/21 12:38:44;;;;;;;7.07;1.50;;;19.80;64.10;;;;;;4774675;30;20059;-78
2022/06/21 12:41:23;;;;;;;4.93;1.40;;;19.90;63.50;;;;;;4773682;30;20067;-77
2022/06/21 12:44:18;;;;;;;7.63;1.48;;;19.80;61.80;;;;;;4774463;30;20065;-75
2022/06/21 12:47:07;;;;;;;3.50;1.38;;;19.80;61.70;;;;;;4772081;30;20064;-78
2022/06/21 12:50:01;;;;;;;11.07;1.85;;;19.80;62.50;;;;;;4774483;30;20063;-77
2022/06/21 12:52:44;;;;;;;4.40;1.35;;;19.80;62.10;;;;;;4775278;30;20052;-76
2022/06/21 12:55:15;;;;;;;7.03;1.58;;;19.80;62.00;;;;;;4792447;30;20135;-77
2022/06/21 12:58:16;;;;;;;8.00;1.77;;;19.80;62.20;;;;;;4792267;30;20090;-78
2022/06/21 13:00:51;;;;;;;12.38;2.17;;;19.80;62.20;;;;;;4758994;30;20064;-78
2022/06/21 13:03:39;;;;;;;4.72;1.00;;;19.80;62.20;;;;;;4758902;30;20060;-77
2022/06/21 13:06:29;;;;;;;11.30;2.03;;;19.80;62.60;;;;;;4774106;30;20060;-78
2022/06/21 13:09:13;;;;;;;5.97;1.45;;;19.90;61.90;;;;;;4779309;30;20062;-76
2022/06/21 13:11:54;;;;;;;5.53;1.02;;;19.90;61.10;;;;;;4791267;30;20051;-77
2022/06/21 13:14:20;;;;;;;8.57;1.52;;;19.90;61.70;;;;;;4791892;30;20058;-75
2022/06/21 13:17:20;;;;;;;4.03;0.90;;;19.90;61.70;;;;;;4791966;30;20463;-77
2022/06/21 13:20:15;;;;;;;4.32;1.45;;;19.90;61.90;;;;;;4787289;30;20051;-77
2022/06/21 13:23:00;;;;;;;13.95;1.73;;;19.90;61.80;;;;;;4783722;30;20421;-78
2022/06/21 13:25:37;;;;;;;12.65;1.75;;;19.90;62.30;;;;;;4790311;30;20503;-84
2022/06/21 13:28:45;;;;;;;11.10;1.70;;;19.90;62.50;;;;;;4775492;30;20485;-79
2022/06/21 13:31:14;;;;;;;15.27;2.28;;;20.00;62.70;;;;;;4755014;30;20408;-79
2022/06/21 13:34:00;;;;;;;8.70;2.05;;;20.00;62.90;;;;;;4758350;30;20048;-80
2022/06/21 13:36:31;;;;;;;13.70;1.80;;;20.00;63.00;;;;;;4757943;30;20066;-79
2022/06/21 13:39:00;;;;;;;9.80;2.22;;;20.00;62.90;;;;;;4761189;30;20035;-77
2022/06/21 13:44:59;;;;;;;9.02;1.60;;;20.10;62.00;;;;;;4783447;30;20039;-81
2022/06/21 13:47:53;;;;;;;5.30;1.67;;;20.10;61.20;;;;;;4732554;30;20051;-78
2022/06/21 13:50:55;;;;;;;11.02;1.60;;;20.10;60.50;;;;;;4756095;30;20377;-79
2022/06/21 13:53:39;;;;;;;9.00;2.03;;;20.10;60.90;;;;;;4791049;30;20150;-76
2022/06/21 13:56:21;;;;;;;14.60;3.75;;;20.10;61.00;;;;;;4791284;29;20489;-77
2022/06/21 13:58:54;;;;;;;15.27;8.95;;;20.10;61.00;;;;;;4790950;30;20207;-80
2022/06/21 14:01:22;;;;;;;12.18;8.05;;;20.20;61.40;;;;;;4790933;30;20047;-82
2022/06/21 14:03:48;;;;;;;15.38;7.43;;;20.20;61.40;;;;;;4775235;30;20047;-77
2022/06/21 14:06:40;;;;;;;9.43;4.68;;;20.20;61.60;;;;;;4791225;30;20050;-78
2022/06/21 14:09:09;;;;;;;15.77;4.90;;;20.20;61.60;;;;;;4788133;30;20352;-79
2022/06/21 14:11:52;;;;;;;15.18;5.25;;;20.30;62.10;;;;;;4791021;29;20046;-77
2022/06/21 14:14:55;;;;;;;13.02;5.53;;;20.30;62.50;;;;;;4791400;30;20052;-79
2022/06/21 14:17:47;;;;;;;14.50;5.20;;;20.30;63.70;;;;;;4785819;30;20059;-79
2022/06/21 14:20:18;;;;;;;17.02;4.22;;;20.30;63.30;;;;;;4791365;30;20059;-77
2022/06/21 14:23:06;;;;;;;11.82;3.72;;;20.40;62.90;;;;;;4790627;30;20135;-79
2022/06/21 14:26:15;;;;;;;6.40;2.80;;;20.40;62.90;;;;;;4775198;30;20532;-80
2022/06/21 14:28:41;;;;;;;5.85;2.40;;;20.50;62.10;;;;;;4787477;30;20074;-81
2022/06/21 14:31:19;;;;;;;8.43;2.70;;;20.50;62.30;;;;;;4790693;29;20051;-79
2022/06/21 14:34:02;;;;;;;7.60;2.00;;;20.50;62.40;;;;;;4790654;30;20059;-79
2022/06/21 14:36:56;;;;;;;5.00;1.75;;;20.50;61.40;;;;;;4790957;30;20383;-79
2022/06/21 14:39:37;;;;;;;5.32;1.67;;;20.50;61.10;;;;;;4789942;29;20055;-78
2022/06/21 14:42:26;;;;;;;4.57;1.90;;;20.50;61.70;;;;;;4790302;30;20212;-78
2022/06/21 14:45:40;;;;;;;7.45;1.85;;;20.50;62.10;;;;;;4780950;30;20063;-78
2022/06/21 14:48:34;;;;;;;7.15;2.17;;;20.40;62.30;;;;;;4763066;29;20071;-77
2022/06/21 14:51:27;;;;;;;6.18;1.95;;;20.40;62.60;;;;;;4774645;30;20487;-77
2022/06/21 14:54:20;;;;;;;6.40;1.92;;;20.40;62.90;;;;;;4772548;30;20068;-76
2022/06/21 14:57:09;;;;;;;6.55;1.80;;;20.40;62.80;;;;;;4773883;30;20134;-76
2022/06/21 14:59:56;;;;;;;6.85;2.13;;;20.40;62.70;;;;;;4787208;30;20054;-81
2022/06/21 15:02:44;;;;;;;2.75;1.50;;;20.40;62.60;;;;;;4790484;30;20355;-79
2022/06/21 15:05:16;;;;;;;4.90;1.92;;;20.40;62.50;;;;;;4789993;30;20062;-79
2022/06/21 15:08:14;;;;;;;4.45;1.60;;;20.40;62.80;;;;;;4790019;30;20066;-77
2022/06/21 15:10:45;;;;;;;4.03;1.70;;;20.50;62.70;;;;;;4765290;30;20059;-79
2022/06/21 15:13:27;;;;;;;4.85;1.50;;;20.50;62.30;;;;;;4775079;29;20090;-79
2022/06/21 15:15:54;;;;;;;5.93;1.45;;;20.50;62.10;;;;;;4774406;30;20059;-78
2022/06/21 15:18:28;;;;;;;4.45;1.80;;;20.40;62.00;;;;;;4790203;30;20095;-77
2022/06/21 15:21:20;;;;;;;2.55;1.30;;;20.40;62.00;;;;;;4790893;30;20055;-78
2022/06/21 15:23:50;;;;;;;4.97;1.33;;;20.40;61.80;;;;;;4789907;30;20059;-80
2022/06/21 15:26:25;;;;;;;3.25;1.50;;;20.40;61.50;;;;;;4790044;30;20175;-78
2022/06/21 15:28:56;;;;;;;6.70;1.52;;;20.40;61.80;;;;;;4790183;30;20460;-79
2022/06/21 15:31:22;;;;;;;11.60;2.22;;;20.40;61.50;;;;;;4790177;30;20341;-78
2022/06/21 15:33:59;;;;;;;8.98;2.17;;;20.40;61.70;;;;;;4789582;30;20054;-78
2022/06/21 15:36:53;;;;;;;14.27;2.00;;;20.40;61.50;;;;;;4773389;30;20200;-78
2022/06/21 15:39:35;;;;;;;15.27;2.47;;;20.40;61.70;;;;;;4779312;30;20052;-77
2022/06/21 15:42:16;;;;;;;7.85;1.83;;;20.40;61.80;;;;;;4790689;30;20055;-79
2022/06/21 15:45:04;;;;;;;8.95;2.15;;;20.40;61.70;;;;;;4790105;30;20117;-78
2022/06/21 15:50:48;;;;;;;8.52;1.90;;;20.40;62.00;;;;;;4789574;30;20371;-81
2022/06/21 15:53:20;;;;;;;6.95;1.85;;;20.40;61.70;;;;;;4793493;30;20395;-79
2022/06/21 15:56:05;;;;;;;6.45;1.58;;;20.40;61.70;;;;;;4776914;30;20479;-77
2022/06/21 15:59:19;;;;;;;5.57;1.52;;;20.40;61.70;;;;;;4793528;30;20138;-76
2022/06/21 16:02:00;;;;;;;8.70;1.85;;;20.40;61.80;;;;;;4765859;30;20074;-76
2022/06/21 16:04:37;;;;;;;5.13;2.22;;;20.40;61.60;;;;;;4793700;30;20419;-80
2022/06/21 16:07:36;;;;;;;5.45;1.80;;;20.40;61.70;;;;;;4762312;30;20126;-81
2022/06/21 16:10:04;;;;;;;7.05;2.05;;;20.40;63.30;;;;;;4792625;29;20058;-79
2022/06/21 16:12:38;;;;;;;6.45;2.70;;;20.40;63.20;;;;;;4777135;30;20127;-76
2022/06/21 16:15:24;;;;;;;6.32;3.40;;;20.40;62.80;;;;;;4793217;30;20074;-76
2022/06/21 16:17:53;;;;;;;7.88;3.42;;;20.40;63.10;;;;;;4793262;30;20055;-77
2022/06/21 16:20:41;;;;;;;6.05;3.13;;;20.40;63.30;;;;;;4792700;30;20057;-76
2022/06/21 16:23:07;;;;;;;7.47;2.78;;;20.40;63.60;;;;;;4776892;30;20128;-77
2022/06/21 16:25:38;;;;;;;11.02;3.58;;;20.40;64.00;;;;;;4793494;30;20051;-77
2022/06/21 16:28:20;;;;;;;6.43;3.20;;;20.40;64.30;;;;;;4793059;30;20055;-77
2022/06/21 16:33:12;;;;;;;7.97;3.05;;;20.50;64.60;;;;;;4791821;30;20130;-76
2022/06/21 16:33:38;;;;;;;9.60;3.10;;;20.50;64.60;;;;;;4777055;30;20061;-75
2022/06/21 16:36:22;;;;;;;11.90;3.03;;;20.50;64.50;;;;;;4792705;30;20112;-76
2022/06/21 16:38:59;;;;;;;11.48;2.72;;;20.50;64.50;;;;;;4762332;30;20076;-76
2022/06/21 16:44:17;;;;;;;7.60;2.55;;;20.60;65.70;;;;;;4775679;30;20063;-76
2022/06/21 16:46:51;;;;;;;4.70;2.60;;;20.60;66.40;;;;;;4792677;30;20478;-77
2022/06/21 16:49:20;;;;;;;6.20;2.42;;;20.60;66.70;;;;;;4792191;30;20056;-76
2022/06/21 16:51:51;;;;;;;5.40;2.40;;;20.60;66.70;;;;;;4791226;30;20054;-76
2022/06/21 16:54:43;;;;;;;6.95;2.40;;;20.60;67.00;;;;;;4792476;30;20063;-76
2022/06/21 16:57:26;;;;;;;6.63;2.05;;;20.60;66.50;;;;;;4788607;30;20138;-78
2022/06/21 16:59:52;;;;;;;9.38;2.72;;;20.60;67.40;;;;;;4792091;30;20051;-75
2022/06/21 17:02:22;;;;;;;6.68;2.30;;;20.60;67.00;;;;;;4791060;29;20353;-80
2022/06/21 17:05:19;;;;;;;5.03;2.55;;;20.60;67.20;;;;;;4758088;30;20452;-77
2022/06/21 17:07:50;;;;;;;8.25;2.53;;;20.60;67.70;;;;;;4774676;30;20078;-77
2022/06/21 17:13:29;;;;;;;12.07;2.85;;;20.70;67.40;;;;;;4758668;30;20064;-75
2022/06/21 17:16:04;;;;;;;10.60;3.00;;;20.70;67.10;;;;;;4788367;30;20116;-77
2022/06/21 17:18:39;;;;;;;17.27;3.25;;;20.70;67.20;;;;;;4791991;30;20131;-77